Terminal Aerodrome Forecast
Issued by NWS Sterling, VA

Current Version | Previous Version | Graphics & Text | Print | Product List | Glossary On
Versions: 1 2 3 4 5 6 7 8 9 10 11 12 13 14 15 16 17 18 19
000
FTUS41 KLWX 270849 AAA
TAFMRB
TAF AMD
KMRB 270849Z 2709/2806 31007KT 5SM -RA OVC025
     FM271200 35005KT P6SM OVC040
     FM272000 32009KT P6SM BKN060=

USA.gov is the U.S. government's official web portal to all federal, state and local government web resources and services.